• Join FlightAware (Why Join?)
  • Login
  • US Flag 
04:50PM EDT


 

Airport Tracker/Info


-or-


 

Live Flight TrackerFlight Track Log ✈ XOJ549 ✈ 09-May-2013 ✈ KPBI - KHPN

Flight Track Log - Related Links

Times and Time Zones

All times are in EDT time to prevent confusion due to time zone crossing. See the XOJ549 flight status page for this flight to view local times or setup timezone preferences in your user account.

Time Position Orientation Groundspeed Altitude Reporting Facility
EDT Latitude Longitude Course Direction KTS MPH feet Rate Location/Type
04:40PM 26.7369 -79.9503 61° Northeast 282 325 7,300  Level Miami Center
04:41PM 26.7967 -79.8892 42° Northeast 287 330 10,900 2,940 Climbing Miami Center
04:42PM 26.8569 -79.8069 51° Northeast 319 367 13,200 1,500 Climbing Miami Center
04:43PM 26.9236 -79.7131 51° Northeast 360 414 13,900 360 Climbing Miami Center
04:44PM 26.9836 -79.6236 53° Northeast 394 453 14,000 1,560 Climbing Miami Center
04:45PM 27.0771 -79.4457 61° Northeast  Level FlightAware Approximate
04:45PM 27.0525 -79.5133 55° Northeast 394 453 17,100  Level Miami Center
04:46PM 27.1475 -79.3383 61° Northeast  Level FlightAware Approximate
04:46PM 27.1192 -79.4122 53° Northeast 394 453 19,900  Level Miami Center
04:47PM 27.1814 -79.3131 55° Northeast 394 453 22,600 1,500 Climbing Miami Center
04:48PM 27.2436 -79.2164 54° Northeast 411 473 23,000 720 Climbing Miami Center
04:49PM 27.3142 -79.1078 54° Northeast 425 489 24,100 1,620 Climbing Miami Center
04:50PM 27.3933 -78.9853 54° Northeast 431 496 26,300 1,920 Climbing Miami Center
04:51PM 27.4658 -78.8719 54° Northeast 442 509 28,000 1,560 Climbing Miami Center
04:52PM 27.5572 -78.7728 44° Northeast 448 516 29,500 1,560 Climbing Miami Center
04:53PM 27.6742 -78.7608 North 436 502 31,200 1,680 Climbing Miami Center
04:54PM 27.7978 -78.7417 North 441 507 32,900 1,440 Climbing Miami Center
04:55PM 27.9211 -78.7250 North 443 510 34,100 1,200 Climbing Miami Center
04:56PM 28.0486 -78.7033 North 449 517 35,400 1,320 Climbing Miami Center
04:57PM 28.1783 -78.6797 North 454 522 36,800 780 Climbing Miami Center
04:58PM 28.3039 -78.6558 10° North 460 529 37,000 60 Climbing Miami Center
04:59PM 28.4294 -78.6342 North 460 529 37,000  Level Miami Center
05:00PM 28.5528 -78.6147 North 449 517 37,000  Level Miami Center
05:01PM 28.6764 -78.5908 10° North 442 509 37,000 240 Level Miami Center
05:02PM 28.7997 -78.5689 North 447 514 37,500 900 Climbing Miami Center
05:03PM 28.9211 -78.5425 11° North 446 513 38,900 1,440 Climbing Miami Center
05:04PM 29.0444 -78.5253 North 437 503 40,400 1,020 Climbing Miami Center
05:05PM 29.1531 -78.4983 12° North 421 484 41,000 300 Climbing Miami Center
05:06PM 29.2786 -78.4811 North 427 491 41,000  Level Miami Center
05:07PM 29.4061 -78.4617 North 436 502 41,000  Level Miami Center
05:08PM 29.5253 -78.4372 10° North 436 502 41,000  Level Miami Center
05:09PM 29.6381 -78.4100 12° North 436 502 41,000  Level Miami Center
05:12PM 29.9769 -78.3564 North 453 521 41,000  Level Jacksonville Center
05:13PM 30.0994 -78.3336 North 447 514 41,000  Level Jacksonville Center
05:14PM 30.2050 -78.3072 12° North 427 491 41,000  Level Jacksonville Center
05:15PM 30.3314 -78.2842 North 425 489 41,000  Level Jacksonville Center
05:16PM 30.4517 -78.2617 North 431 496 41,000  Level Jacksonville Center
05:17PM 30.5633 -78.2369 11° North 420 483 41,000  Level Jacksonville Center
05:18PM 30.6881 -78.2164 North 424 488 41,000  Level Jacksonville Center
05:19PM 30.8019 -78.1936 10° North 430 495 41,000  Level Jacksonville Center
05:20PM 30.9264 -78.1731 North 435 501 41,000  Level Jacksonville Center
05:21PM 31.0339 -78.1458 12° North 435 501 41,000  Level Jacksonville Center
05:22PM 31.1581 -78.1200 10° North 440 506 41,000  Level Jacksonville Center
05:23PM 31.2825 -78.0967 North 446 513 41,000  Level Jacksonville Center
05:24PM 31.4050 -78.0758 North 446 513 41,000  Level Jacksonville Center
05:25PM 31.5294 -78.0547 North 446 513 41,000  Level Jacksonville Center
05:26PM 31.6536 -78.0314 North 446 513 41,000  Level Jacksonville Center
05:27PM 31.7781 -78.0053 10° North 446 513 41,000  Level Jacksonville Center
05:28PM 31.9003 -77.9817 North 446 513 41,000  Level Jacksonville Center
05:29PM 32.0225 -77.9581 North 446 513 41,000  Level Jacksonville Center
05:30PM 32.1464 -77.9292 11° North 446 513 41,000  Level Jacksonville Center
05:31PM 32.2686 -77.9053 North 446 513 41,000  Level Jacksonville Center
05:32PM 32.3931 -77.8839 North 446 513 41,000  Level Jacksonville Center
05:33PM 32.5175 -77.8622 North 446 513 41,000  Level Jacksonville Center
05:34PM 32.6417 -77.8381 North 446 513 41,000  Level Jacksonville Center
05:35PM 32.7639 -77.8139 North 446 513 41,000  Level Jacksonville Center
05:36PM 32.8925 -77.7917 North 446 513 41,000  Level Jacksonville Center
05:37PM 33.0144 -77.7650 10° North 446 513 41,000  Level Jacksonville Center
05:38PM 33.1408 -77.7428 North 446 513 41,000  Level Jacksonville Center
05:41PM 33.4547 -77.6775 10° North 442 509 41,000  Level Washington Center
05:42PM 33.5761 -77.6531 10° North 442 509 41,000  Level Washington Center
05:43PM 33.7019 -77.6286 North 447 514 41,000  Level Washington Center
05:44PM 33.8233 -77.6017 10° North 447 514 41,000  Level Washington Center
05:45PM 33.9467 -77.5772 North 447 514 41,000  Level Washington Center
05:46PM 34.0722 -77.5525 North 447 514 41,000  Level Washington Center
05:47PM 34.1936 -77.5303 North 447 514 41,000  Level Washington Center
05:48PM 34.3194 -77.5006 11° North 447 514 41,000  Level Washington Center
05:49PM 34.4369 -77.4453 21° North 447 514 41,000  Level Washington Center
05:50PM 34.5569 -77.3825 23° Northeast 453 521 41,000  Level Washington Center
05:51PM 34.6747 -77.3219 23° Northeast 453 521 41,000  Level Washington Center
05:52PM 34.7944 -77.2589 23° Northeast 458 527 41,000  Level Washington Center
05:53PM 34.8975 -77.2025 24° Northeast 458 527 41,000  Level Washington Center
05:54PM 35.0172 -77.1392 23° Northeast 458 527 41,000  Level Washington Center
05:55PM 35.1369 -77.0753 24° Northeast 468 539 41,000  Level Washington Center
05:56PM 35.2567 -77.0139 23° Northeast 461 531 41,000  Level Washington Center
05:57PM 35.3722 -76.9497 24° Northeast 461 531 41,000  Level Washington Center
05:58PM 35.4917 -76.8881 23° Northeast 461 531 41,000  Level Washington Center
05:59PM 35.6136 -76.8236 23° Northeast 461 531 41,000  Level Washington Center
06:00PM 35.7414 -76.7514 25° Northeast 456 525 41,000  Level Washington Center
06:01PM 35.8611 -76.6864 24° Northeast 461 531 41,000 -60 Level Washington Center
06:02PM 35.9783 -76.6239 23° Northeast 461 531 40,900  Descending Washington Center
06:03PM 36.1000 -76.5586 23° Northeast 461 531 41,000  Climbing Washington Center
06:04PM 36.2172 -76.4956 23° Northeast 461 531 40,900  Descending Washington Center
06:05PM 36.3389 -76.4300 23° Northeast 461 531 41,000  Climbing Washington Center
06:06PM 36.4581 -76.3642 24° Northeast 461 531 41,000  Level Washington Center
06:07PM 36.5775 -76.2981 24° Northeast 461 531 41,000  Level Washington Center
06:08PM 36.6989 -76.2344 23° Northeast 461 531 41,000  Level Washington Center
06:09PM 36.8036 -76.1703 26° Northeast 461 531 41,000  Level Washington Center
06:10PM 36.9247 -76.1036 24° Northeast 461 531 41,000  Level Washington Center
06:11PM 37.0503 -76.0419 21° North 468 539 41,000  Level Washington Center
06:12PM 37.1672 -75.9750 25° Northeast 468 539 41,000  Level Washington Center
06:13PM 37.2864 -75.9078 24° Northeast 462 532 41,000  Level Washington Center
06:14PM 37.4053 -75.8403 24° Northeast 462 532 41,000  Level Washington Center
06:15PM 37.5264 -75.7725 24° Northeast 462 532 41,000  Level Washington Center
06:16PM 37.6456 -75.7044 24° Northeast 462 532 41,000  Level Washington Center
06:17PM 37.7644 -75.6339 25° Northeast 462 532 41,000  Level Washington Center
06:18PM 37.8853 -75.5681 23° Northeast 462 532 41,000  Level Washington Center
06:19PM 38.0042 -75.4994 24° Northeast 462 532 41,000  Level Washington Center
06:20PM 38.1231 -75.4281 25° Northeast 462 532 41,000  Level Washington Center
06:21PM 38.2458 -75.3539 25° Northeast 468 539 41,000  Level Washington Center
06:22PM 38.3603 -75.2714 29° Northeast 468 539 41,000  Level Washington Center
06:23PM 38.4831 -75.1992 25° Northeast 468 539 41,000  Level Washington Center
06:24PM 38.6017 -75.1161 29° Northeast 473 544 41,000  Level Washington Center
06:25PM 38.7244 -75.0436 25° Northeast 473 544 41,000 -120 Level Washington Center
06:26PM 38.8408 -74.9681 27° Northeast 473 544 40,800 -1,020 Descending Washington Center
06:27PM 38.9592 -74.8894 27° Northeast 468 539 39,000 -2,220 Descending Washington Center
06:28PM 39.0753 -74.8136 27° Northeast 468 539 36,500 -2,520 Descending Washington Center
06:29PM 39.1789 -74.7133 37° Northeast 468 539 34,000 -2,460 Descending Washington Center
06:31PM 39.3747 -74.5092 39° Northeast 454 522 29,200 -2,400 Descending New York Center
06:32PM 39.4717 -74.4122 38° Northeast 448 516 26,900 -2,400 Descending New York Center
06:33PM 39.5708 -74.3069 39° Northeast 448 516 24,500 -1,500 Descending New York Center
06:34PM 39.7136 -74.1553 39° Northeast 429 494 22,800 -1,080 Descending Boston Center
06:35PM 39.8217 -74.0392 40° Northeast 424 488 21,600 -1,200 Descending Boston Center
06:36PM 39.9147 -73.9414 39° Northeast 424 488 20,400 -1,200 Descending Boston Center
06:37PM 40.0078 -73.8458 38° Northeast 424 488 19,200 -1,200 Descending Boston Center
06:38PM 40.0922 -73.7472 42° Northeast 424 488 18,000 -1,200 Descending Boston Center
06:39PM 40.1850 -73.6569 37° Northeast 418 481 16,900 -540 Descending Boston Center
06:40PM 40.2672 -73.5606 42° Northeast 404 465 17,000  Climbing Boston Center
06:41PM 40.3556 -73.4722 37° Northeast 399 459 17,000  Level Boston Center
06:42PM 40.4581 -73.4275 18° North 385 443 17,000  Level Boston Center
06:43PM 40.5731 -73.3828 16° North 385 443 17,000 -360 Level Boston Center
06:45PM 40.7333 -73.3167 17° North 341 392 16,100 -960 Descending New York TRACON
06:46PM 40.8000 -73.2667 30° Northeast 328 377 14,700 -1,500 Descending New York TRACON
06:47PM 40.8667 -73.1667 49° Northeast 335 386 13,200 -1,440 Descending New York TRACON
06:48PM 40.9000 -73.0667 66° East 316 364 11,700 -1,740 Descending New York TRACON
06:49PM 40.9833 -73.0500 North 271 312 9,800 -2,280 Descending New York TRACON
06:50PM 41.0500 -73.0833 339° North 268 308 7,200 -2,580 Descending New York TRACON
06:51PM 41.1000 -73.1500 315° West 259 298 4,700 -1,620 Descending New York TRACON
06:52PM 41.1167 -73.2333 285° West 238 274 4,000 -360 Descending New York TRACON
06:53PM 41.1333 -73.3167 285° West 233 268 4,000  Level New York TRACON
06:54PM 41.1500 -73.4000 285° West 237 273 4,000  Level New York TRACON
06:55PM 41.1833 -73.4667 304° West 221 254 4,000 -360 Level New York TRACON
06:56PM 41.1667 -73.5333 252° West 183 211 3,300 -720 Descending New York TRACON
06:58PM 41.1667 -73.6667 270° West 167 192 2,000 -480 Descending New York TRACON
06:59PM 41.1500 -73.7333 252° West 167 192 2,000 -240 Level New York TRACON
07:00PM 41.1167 -73.7500 201° Southwest 164 189 1,600 -660 Descending New York TRACON
07:01PM 41.0833 -73.7167 143° Southeast 139 160 700 -900 Descending New York TRACON
07:03PM 41.0667 -73.7000 236° Southwest  Level FlightAware Approximate
07:10PM 41.0669 -73.7076 236° Southwest  Level Estimated
07:11PM 41.0667 -73.7000 236° Southwest  Level FlightAware Approximate